Time;durP1;ratioP1;P1;durP2;ratioP2;P2;SDS_P1;SDS_P2;PMS_P1;PMS_P2;Temp;Humidity;BMP_temperature;BMP_pressure;BME280_temperature;BME280_humidity;BME280_pressure;Samples;Min_cycle;Max_cycle;Signal;HPM_P1;HPM_P2
2023/03/16 00:00:30;;;;;;;1.52;1.42;;;3.40;99.90;;;;;;5010070;28;20231;-81
2023/03/16 00:02:58;;;;;;;1.08;1.08;;;3.40;99.90;;;;;;5010225;28;20273;-85
2023/03/16 00:05:27;;;;;;;1.33;1.23;;;3.40;99.90;;;;;;5010239;28;20306;-85
2023/03/16 00:07:55;;;;;;;1.55;1.45;;;3.40;99.90;;;;;;5009862;28;20299;-81
2023/03/16 00:10:26;;;;;;;1.50;1.40;;;3.40;99.90;;;;;;5010165;28;20263;-81
2023/03/16 00:12:55;;;;;;;1.42;1.33;;;3.40;99.90;;;;;;5010086;28;20302;-85
2023/03/16 00:15:23;;;;;;;1.80;1.70;;;3.40;99.90;;;;;;5010383;28;20207;-86
2023/03/16 00:17:52;;;;;;;1.48;1.38;;;3.40;99.90;;;;;;5009405;28;20253;-85
2023/03/16 00:20:20;;;;;;;1.65;1.55;;;3.30;99.90;;;;;;5011011;28;20233;-85
2023/03/16 00:22:48;;;;;;;1.17;1.17;;;3.30;99.90;;;;;;5013576;28;20214;-85
2023/03/16 00:25:18;;;;;;;1.65;1.45;;;3.30;99.90;;;;;;5013847;28;20249;-84
2023/03/16 00:27:48;;;;;;;1.33;1.30;;;3.20;99.90;;;;;;5013324;28;20211;-81
2023/03/16 00:30:16;;;;;;;1.42;1.35;;;3.20;99.90;;;;;;5012724;28;20313;-81
2023/03/16 00:32:45;;;;;;;1.58;1.48;;;3.20;99.90;;;;;;5013120;28;20219;-86
2023/03/16 00:35:13;;;;;;;1.65;1.55;;;3.20;99.90;;;;;;5013486;28;20227;-82
2023/03/16 00:37:43;;;;;;;1.90;1.80;;;3.20;99.90;;;;;;5012817;28;20294;-80
2023/03/16 00:40:12;;;;;;;1.85;1.73;;;3.10;99.90;;;;;;5013350;28;20219;-81
2023/03/16 00:42:41;;;;;;;1.65;1.55;;;3.10;99.90;;;;;;5013264;28;20254;-82
2023/03/16 00:45:11;;;;;;;1.98;1.88;;;3.10;99.90;;;;;;5015384;28;20199;-81
2023/03/16 00:47:41;;;;;;;2.53;1.83;;;3.10;99.90;;;;;;5014891;28;20326;-81
2023/03/16 00:50:10;;;;;;;1.95;1.65;;;3.10;99.90;;;;;;5015355;28;20238;-81
2023/03/16 00:52:38;;;;;;;1.63;1.52;;;3.10;99.90;;;;;;5015650;28;20220;-81
2023/03/16 00:55:07;;;;;;;1.33;1.23;;;3.10;99.90;;;;;;5015052;28;20235;-81
2023/03/16 00:57:35;;;;;;;1.77;1.67;;;3.10;99.90;;;;;;5014929;28;20258;-81
2023/03/16 01:00:11;;;;;;;1.65;1.55;;;3.10;99.90;;;;;;5015278;28;20319;-81
2023/03/16 01:02:41;;;;;;;1.85;1.75;;;3.00;99.90;;;;;;5015371;28;20217;-81
2023/03/16 01:05:11;;;;;;;2.45;2.25;;;3.00;99.90;;;;;;5015155;28;20195;-81
2023/03/16 01:07:40;;;;;;;2.20;2.00;;;3.00;99.90;;;;;;5014551;28;20302;-81
2023/03/16 01:10:10;;;;;;;1.15;1.15;;;3.00;99.90;;;;;;5015415;28;20231;-85
2023/03/16 01:12:38;;;;;;;1.80;1.70;;;2.90;99.90;;;;;;5015262;28;20218;-85
2023/03/16 01:15:10;;;;;;;1.92;1.80;;;2.90;99.90;;;;;;5014520;28;20231;-85
2023/03/16 01:17:40;;;;;;;1.70;1.60;;;2.90;99.90;;;;;;5014288;28;20211;-84
2023/03/16 01:20:14;;;;;;;1.92;1.75;;;2.80;99.90;;;;;;5014847;28;20241;-86
2023/03/16 01:22:45;;;;;;;1.83;1.70;;;2.80;99.90;;;;;;5014916;28;20279;-85
2023/03/16 01:25:14;;;;;;;3.20;1.88;;;2.80;99.90;;;;;;5014516;28;20258;-81
2023/03/16 01:27:43;;;;;;;1.90;1.80;;;2.70;99.90;;;;;;5014194;28;20234;-81
2023/03/16 01:30:12;;;;;;;1.88;1.67;;;2.70;99.90;;;;;;5014071;28;20317;-81
2023/03/16 01:32:40;;;;;;;2.28;2.08;;;2.70;99.90;;;;;;5014542;28;20297;-81
2023/03/16 01:35:10;;;;;;;1.80;1.70;;;2.70;99.90;;;;;;5014389;28;20251;-81
2023/03/16 01:37:39;;;;;;;2.20;2.00;;;2.70;99.90;;;;;;5014054;28;20206;-81
2023/03/16 01:40:11;;;;;;;3.58;2.53;;;2.60;99.90;;;;;;5014573;28;20231;-82
2023/03/16 01:42:47;;;;;;;2.55;2.35;;;2.60;99.90;;;;;;5013526;28;20269;-81
2023/03/16 01:46:07;;;;;;;1.60;1.50;;;2.60;99.90;;;;;;5014263;28;20262;-82
2023/03/16 01:48:39;;;;;;;2.50;2.30;;;2.60;99.90;;;;;;5013970;28;20273;-82
2023/03/16 01:51:12;;;;;;;1.92;1.83;;;2.60;99.90;;;;;;5014321;28;20227;-82
2023/03/16 01:53:43;;;;;;;2.17;2.00;;;2.50;99.90;;;;;;5014031;28;20271;-82
2023/03/16 01:56:15;;;;;;;2.00;1.90;;;2.50;99.90;;;;;;5014463;28;20217;-81
2023/03/16 01:58:44;;;;;;;2.42;2.22;;;2.50;99.90;;;;;;5013488;28;20302;-81
2023/03/16 02:01:14;;;;;;;2.25;2.08;;;2.50;99.90;;;;;;5014235;28;20316;-85
2023/03/16 02:03:44;;;;;;;1.92;1.83;;;2.50;99.90;;;;;;5014108;28;20290;-85
2023/03/16 02:06:18;;;;;;;1.77;1.67;;;2.50;99.90;;;;;;5013994;28;20203;-85
2023/03/16 02:08:49;;;;;;;2.67;2.47;;;2.50;99.90;;;;;;5013660;28;20230;-85
2023/03/16 02:11:18;;;;;;;2.15;2.03;;;2.40;99.90;;;;;;5013770;28;20327;-85
2023/03/16 02:13:46;;;;;;;2.92;2.38;;;2.40;99.90;;;;;;5013655;28;20202;-85
2023/03/16 02:16:18;;;;;;;2.35;2.15;;;2.40;99.90;;;;;;5013921;28;20213;-85
2023/03/16 02:18:47;;;;;;;2.70;2.50;;;2.40;99.90;;;;;;5013013;28;20268;-86
2023/03/16 02:21:25;;;;;;;3.70;3.15;;;2.40;99.90;;;;;;5013874;28;20223;-81
2023/03/16 02:23:53;;;;;;;2.42;2.22;;;2.30;99.90;;;;;;5013655;28;20211;-80
2023/03/16 02:26:29;;;;;;;2.72;2.53;;;2.30;99.90;;;;;;5013680;28;20214;-81
2023/03/16 02:29:10;;;;;;;5.03;3.15;;;2.30;99.90;;;;;;5013348;28;20242;-81
2023/03/16 02:31:40;;;;;;;3.72;2.30;;;2.20;99.90;;;;;;5013408;28;20222;-81
2023/03/16 02:34:09;;;;;;;2.60;2.40;;;2.20;99.90;;;;;;5013205;28;20299;-81
2023/03/16 02:36:40;;;;;;;3.38;2.72;;;2.20;99.90;;;;;;5013395;28;20260;-81
2023/03/16 02:39:11;;;;;;;4.70;2.97;;;2.20;99.90;;;;;;5013878;28;20265;-82
2023/03/16 02:41:40;;;;;;;4.05;2.78;;;2.10;99.90;;;;;;5012598;28;20353;-81
2023/03/16 02:44:14;;;;;;;2.60;2.40;;;2.10;99.90;;;;;;5012614;28;20207;-86
2023/03/16 02:46:49;;;;;;;2.67;2.47;;;2.10;99.90;;;;;;5012596;28;20253;-84
2023/03/16 02:49:23;;;;;;;3.28;3.00;;;2.10;99.90;;;;;;5013371;28;20215;-84
2023/03/16 02:51:52;;;;;;;3.00;2.47;;;2.10;99.90;;;;;;5013349;28;20202;-82
2023/03/16 02:54:20;;;;;;;2.47;2.20;;;2.00;99.90;;;;;;5013158;28;20238;-80
2023/03/16 02:56:49;;;;;;;3.47;3.17;;;2.00;99.90;;;;;;5013009;28;20268;-81
2023/03/16 02:59:17;;;;;;;2.50;2.30;;;2.00;99.90;;;;;;5012886;28;20207;-81
2023/03/16 03:01:47;;;;;;;2.58;2.38;;;2.00;99.90;;;;;;5013080;28;20231;-81
2023/03/16 03:04:16;;;;;;;2.63;2.42;;;2.00;99.90;;;;;;5012987;28;20207;-87
2023/03/16 03:06:45;;;;;;;2.65;2.45;;;2.00;99.90;;;;;;5012578;28;20257;-85
2023/03/16 03:09:13;;;;;;;2.70;2.50;;;2.00;99.90;;;;;;5012840;28;20238;-85
2023/03/16 03:11:42;;;;;;;2.60;2.40;;;2.00;99.90;;;;;;5012470;28;20227;-85
2023/03/16 03:14:11;;;;;;;3.35;3.05;;;2.00;99.90;;;;;;5012895;28;20213;-81
2023/03/16 03:16:40;;;;;;;4.18;3.78;;;2.00;99.90;;;;;;5012445;28;20222;-81
2023/03/16 03:19:10;;;;;;;2.72;2.53;;;2.00;99.90;;;;;;5012746;28;20234;-81
2023/03/16 03:21:39;;;;;;;2.65;2.45;;;1.90;99.90;;;;;;5013286;28;20222;-81
2023/03/16 03:24:08;;;;;;;3.35;2.95;;;1.90;99.90;;;;;;5012721;28;20227;-81
2023/03/16 03:26:36;;;;;;;2.97;2.42;;;1.90;99.90;;;;;;5012490;28;20204;-81
2023/03/16 03:29:05;;;;;;;2.72;2.53;;;1.90;99.90;;;;;;5012429;28;20243;-81
2023/03/16 03:31:33;;;;;;;3.13;2.92;;;1.90;99.90;;;;;;5012757;28;20231;-85
2023/03/16 03:34:05;;;;;;;4.60;3.53;;;1.90;99.90;;;;;;5012845;28;20266;-85
2023/03/16 03:36:35;;;;;;;3.22;2.92;;;1.90;99.90;;;;;;5012467;28;20237;-86
2023/03/16 03:39:04;;;;;;;4.53;3.53;;;1.90;99.90;;;;;;5011965;28;20293;-86
2023/03/16 03:41:33;;;;;;;3.58;3.08;;;1.90;99.90;;;;;;5011422;28;20254;-82
2023/03/16 03:44:02;;;;;;;3.78;3.42;;;1.90;99.90;;;;;;5012687;28;20207;-82
2023/03/16 03:46:30;;;;;;;3.08;2.78;;;1.80;99.90;;;;;;5012506;28;20265;-81
2023/03/16 03:49:02;;;;;;;4.28;3.72;;;1.90;99.90;;;;;;5012164;28;20211;-81
2023/03/16 03:51:31;;;;;;;4.07;3.70;;;1.90;99.90;;;;;;5012704;28;20325;-81
2023/03/16 03:54:03;;;;;;;3.08;2.83;;;1.80;99.90;;;;;;5013828;28;20277;-85
2023/03/16 03:56:32;;;;;;;3.35;3.05;;;1.80;99.90;;;;;;5015939;28;20223;-85
2023/03/16 03:59:00;;;;;;;4.22;3.63;;;1.80;99.90;;;;;;5015626;28;20211;-84
2023/03/16 04:01:28;;;;;;;3.67;3.13;;;1.80;99.90;;;;;;5016058;28;20254;-86
2023/03/16 04:03:57;;;;;;;4.90;3.50;;;1.80;99.90;;;;;;5016686;28;20258;-86
2023/03/16 04:06:25;;;;;;;3.67;3.10;;;1.80;99.90;;;;;;5016272;28;20195;-85
2023/03/16 04:08:54;;;;;;;3.40;3.10;;;1.70;99.90;;;;;;5015620;28;20207;-85
2023/03/16 04:11:24;;;;;;;3.42;2.78;;;1.70;99.90;;;;;;5016182;28;20314;-86
2023/03/16 04:13:53;;;;;;;2.85;2.65;;;1.70;99.90;;;;;;5015764;28;20207;-85
2023/03/16 04:16:25;;;;;;;3.20;2.95;;;1.70;99.90;;;;;;5015856;28;20290;-84
2023/03/16 04:18:54;;;;;;;3.67;3.38;;;1.60;99.90;;;;;;5015673;28;20207;-86
2023/03/16 04:21:23;;;;;;;3.42;2.83;;;1.60;99.90;;;;;;5015573;28;20255;-85
2023/03/16 04:23:53;;;;;;;3.97;2.92;;;1.60;99.90;;;;;;5015985;28;20310;-85
2023/03/16 04:26:24;;;;;;;3.13;2.83;;;1.60;99.90;;;;;;5015633;28;20245;-85
2023/03/16 04:28:52;;;;;;;5.28;3.42;;;1.60;99.90;;;;;;5015451;28;20214;-85
2023/03/16 04:31:21;;;;;;;3.63;3.33;;;1.60;99.90;;;;;;5015736;28;20227;-85
2023/03/16 04:33:53;;;;;;;3.33;2.85;;;1.50;99.90;;;;;;5015597;28;20209;-85
2023/03/16 04:36:23;;;;;;;3.70;3.20;;;1.50;99.90;;;;;;5015435;28;20219;-85
2023/03/16 04:38:52;;;;;;;3.38;3.08;;;1.50;99.90;;;;;;5014890;28;20254;-85
2023/03/16 04:41:20;;;;;;;3.67;3.08;;;1.50;99.90;;;;;;5014321;28;20242;-85
2023/03/16 04:43:50;;;;;;;3.88;3.50;;;1.50;99.90;;;;;;5015685;28;20261;-85
2023/03/16 04:46:19;;;;;;;3.50;3.20;;;1.50;99.90;;;;;;5015252;28;20241;-86
2023/03/16 04:48:47;;;;;;;4.05;3.60;;;1.50;99.90;;;;;;5014374;28;20219;-85
2023/03/16 04:51:15;;;;;;;3.20;2.95;;;1.50;99.90;;;;;;5015521;28;20266;-85
2023/03/16 04:53:44;;;;;;;4.00;3.63;;;1.50;99.90;;;;;;5015167;28;20207;-86
2023/03/16 04:56:17;;;;;;;20.55;3.58;;;1.50;99.90;;;;;;5015347;28;20269;-85
2023/03/16 04:58:45;;;;;;;3.10;2.90;;;1.50;99.90;;;;;;5014872;28;20203;-85
2023/03/16 05:01:17;;;;;;;3.45;3.15;;;1.50;99.90;;;;;;5014986;28;20259;-85
2023/03/16 05:03:45;;;;;;;2.35;2.22;;;1.50;99.90;;;;;;5015404;28;20207;-85
2023/03/16 05:06:14;;;;;;;4.28;3.88;;;1.50;99.90;;;;;;5014197;28;20225;-85
2023/03/16 05:08:42;;;;;;;3.35;3.05;;;1.50;99.90;;;;;;5014651;28;20257;-86
2023/03/16 05:11:11;;;;;;;3.70;3.30;;;1.50;99.90;;;;;;5014934;28;20258;-85
2023/03/16 05:13:39;;;;;;;3.58;3.28;;;1.50;99.90;;;;;;5014601;28;20215;-85
2023/03/16 05:16:07;;;;;;;2.47;2.33;;;1.50;99.90;;;;;;5014840;28;20277;-85
2023/03/16 05:18:38;;;;;;;3.92;3.58;;;1.50;99.90;;;;;;5014755;28;20234;-86
2023/03/16 05:21:06;;;;;;;2.72;2.53;;;1.40;99.90;;;;;;5014495;28;20282;-86
2023/03/16 05:23:35;;;;;;;3.90;3.58;;;1.40;99.90;;;;;;5015204;28;20284;-86
2023/03/16 05:26:03;;;;;;;6.13;3.17;;;1.40;99.90;;;;;;5014729;28;20299;-86
2023/03/16 05:28:32;;;;;;;5.55;3.70;;;1.40;99.90;;;;;;5014332;28;20223;-86
2023/03/16 05:31:03;;;;;;;4.95;3.80;;;1.50;99.90;;;;;;5014587;28;20314;-86
2023/03/16 05:33:31;;;;;;;3.65;3.35;;;1.40;99.90;;;;;;5014935;28;20242;-86
2023/03/16 05:36:02;;;;;;;2.60;2.40;;;1.50;99.90;;;;;;5014978;28;20219;-86
2023/03/16 05:38:30;;;;;;;3.15;2.90;;;1.50;99.90;;;;;;5013905;28;20215;-86
2023/03/16 05:41:00;;;;;;;4.97;3.80;;;1.50;99.90;;;;;;5013023;28;20231;-86
2023/03/16 05:43:33;;;;;;;3.92;3.53;;;1.50;99.90;;;;;;5014483;28;20211;-86
2023/03/16 05:46:02;;;;;;;3.85;3.55;;;1.60;99.90;;;;;;5014029;28;20211;-86
2023/03/16 05:48:30;;;;;;;3.05;2.85;;;1.60;99.90;;;;;;5013461;28;20207;-85
2023/03/16 05:51:04;;;;;;;6.25;3.63;;;1.60;99.90;;;;;;5013993;28;20296;-85
2023/03/16 05:53:34;;;;;;;3.95;3.65;;;1.60;99.90;;;;;;5014430;28;20234;-85
2023/03/16 05:56:03;;;;;;;4.65;3.30;;;1.70;99.90;;;;;;5014044;28;20301;-86
2023/03/16 05:58:34;;;;;;;3.72;3.25;;;1.70;99.90;;;;;;5013709;28;20207;-85
2023/03/16 06:01:04;;;;;;;3.85;3.55;;;1.70;99.90;;;;;;5013773;28;20227;-85
2023/03/16 06:03:32;;;;;;;4.22;3.88;;;1.70;99.90;;;;;;5013851;28;20310;-86
2023/03/16 06:06:03;;;;;;;5.68;3.97;;;1.80;99.90;;;;;;5014332;28;20214;-85
2023/03/16 06:08:33;;;;;;;3.13;2.88;;;1.80;99.90;;;;;;5013586;28;20245;-86
2023/03/16 06:11:03;;;;;;;3.72;3.42;;;1.80;99.90;;;;;;5013646;28;20277;-87
2023/03/16 06:13:31;;;;;;;3.38;3.10;;;1.80;99.90;;;;;;5013586;28;20275;-86
2023/03/16 06:16:00;;;;;;;5.20;3.83;;;1.90;99.90;;;;;;5013281;28;20210;-85
2023/03/16 06:18:28;;;;;;;4.15;3.63;;;2.00;99.90;;;;;;5013237;28;20244;-84
2023/03/16 06:20:57;;;;;;;4.38;3.97;;;2.00;99.90;;;;;;5013715;28;20282;-85
2023/03/16 06:23:27;;;;;;;20.85;3.78;;;2.00;99.90;;;;;;5013842;28;20301;-85
2023/03/16 06:25:55;;;;;;;4.50;3.78;;;2.10;99.90;;;;;;5013277;28;20257;-85
2023/03/16 06:28:24;;;;;;;3.42;3.13;;;2.10;99.90;;;;;;5012884;28;20211;-85
2023/03/16 06:30:54;;;;;;;4.63;3.83;;;2.20;99.90;;;;;;5013669;28;20235;-85
2023/03/16 06:33:22;;;;;;;3.60;3.30;;;2.20;99.90;;;;;;5013758;28;20203;-85
2023/03/16 06:35:51;;;;;;;3.80;3.50;;;2.20;99.90;;;;;;5013743;28;20298;-86
2023/03/16 06:38:19;;;;;;;3.45;3.15;;;2.20;99.90;;;;;;5012642;28;20323;-82
2023/03/16 06:40:53;;;;;;;3.55;3.28;;;2.30;99.90;;;;;;5013136;28;20293;-81
2023/03/16 06:43:21;;;;;;;4.00;3.63;;;2.30;99.90;;;;;;5013389;28;20310;-81
2023/03/16 06:45:49;;;;;;;3.25;2.95;;;2.30;99.90;;;;;;5013451;28;20214;-81
2023/03/16 06:48:18;;;;;;;3.78;3.45;;;2.40;99.90;;;;;;5013061;28;20215;-81
2023/03/16 06:50:46;;;;;;;4.18;3.55;;;2.40;99.90;;;;;;5013077;28;20318;-81
2023/03/16 06:53:15;;;;;;;4.47;4.07;;;2.50;99.90;;;;;;5013238;28;20215;-81
2023/03/16 06:55:46;;;;;;;3.70;3.00;;;2.50;99.90;;;;;;5013570;28;20265;-81
2023/03/16 06:58:16;;;;;;;8.73;3.33;;;2.60;99.90;;;;;;5012442;28;20289;-81
2023/03/16 07:00:45;;;;;;;4.28;3.42;;;2.60;99.90;;;;;;5013104;28;20297;-81
2023/03/16 07:03:14;;;;;;;5.53;4.28;;;2.70;99.90;;;;;;5012999;28;20221;-85
2023/03/16 07:05:42;;;;;;;4.22;3.75;;;2.70;99.90;;;;;;5013403;28;20299;-86
2023/03/16 07:08:10;;;;;;;5.40;3.13;;;2.80;99.90;;;;;;5012603;28;20203;-85
2023/03/16 07:10:39;;;;;;;3.65;3.35;;;2.80;99.90;;;;;;5013484;28;20277;-85
2023/03/16 07:13:07;;;;;;;5.22;3.50;;;2.80;99.90;;;;;;5013043;28;20215;-82
2023/03/16 07:15:37;;;;;;;3.67;3.03;;;3.00;99.90;;;;;;5013285;28;20202;-81
2023/03/16 07:18:06;;;;;;;4.07;3.67;;;3.00;99.90;;;;;;5011936;28;20230;-82
2023/03/16 07:20:34;;;;;;;4.40;3.88;;;3.00;99.90;;;;;;5012559;28;20305;-82
2023/03/16 07:23:03;;;;;;;3.63;3.33;;;3.00;99.90;;;;;;5013148;28;20261;-82
2023/03/16 07:25:31;;;;;;;3.17;2.88;;;3.10;99.90;;;;;;5013237;28;20280;-82
2023/03/16 07:28:00;;;;;;;3.78;3.45;;;3.20;99.90;;;;;;5012507;28;20206;-82
2023/03/16 07:30:28;;;;;;;3.60;3.30;;;3.20;99.90;;;;;;5019463;28;20317;-81
2023/03/16 07:33:00;;;;;;;4.03;3.58;;;3.20;99.90;;;;;;5019348;28;20249;-82
2023/03/16 07:35:29;;;;;;;4.60;3.80;;;3.20;99.90;;;;;;5019060;28;20222;-86
2023/03/16 07:37:57;;;;;;;3.60;3.05;;;3.30;99.90;;;;;;5018859;28;20322;-85
2023/03/16 07:40:26;;;;;;;3.63;3.35;;;3.40;99.90;;;;;;5018247;28;20290;-85
2023/03/16 07:42:55;;;;;;;3.75;3.38;;;3.40;99.90;;;;;;5019317;28;20207;-85
2023/03/16 07:45:23;;;;;;;3.63;3.33;;;3.50;99.90;;;;;;5019154;28;20297;-85
2023/03/16 07:47:51;;;;;;;3.38;2.95;;;3.60;99.90;;;;;;5018453;28;20225;-85
2023/03/16 07:50:21;;;;;;;5.55;3.65;;;3.60;99.90;;;;;;5019116;28;20322;-85
2023/03/16 07:52:50;;;;;;;3.00;2.80;;;3.70;99.90;;;;;;5019201;28;20230;-82
2023/03/16 07:55:18;;;;;;;5.25;3.75;;;3.80;99.90;;;;;;5019154;28;20330;-82
2023/03/16 07:57:47;;;;;;;7.93;4.15;;;3.80;99.90;;;;;;5018702;28;20226;-81
2023/03/16 08:00:19;;;;;;;3.08;2.72;;;4.00;99.90;;;;;;5019061;28;20251;-81
2023/03/16 08:02:47;;;;;;;3.97;3.33;;;4.00;99.90;;;;;;5019149;28;20207;-82
2023/03/16 08:05:16;;;;;;;3.35;3.05;;;4.10;99.90;;;;;;5018945;28;20269;-81
2023/03/16 08:07:46;;;;;;;3.50;3.15;;;4.20;99.90;;;;;;5018519;28;20214;-81
2023/03/16 08:10:14;;;;;;;3.28;2.58;;;4.40;99.90;;;;;;5019218;28;20319;-81
2023/03/16 08:12:42;;;;;;;3.25;2.53;;;4.40;99.90;;;;;;5019107;28;20203;-81
2023/03/16 08:15:12;;;;;;;6.75;3.13;;;4.50;99.90;;;;;;5019030;28;20203;-81
2023/03/16 08:17:41;;;;;;;2.65;2.40;;;4.60;99.90;;;;;;5018414;28;20273;-85
2023/03/16 08:20:13;;;;;;;3.58;2.92;;;4.60;99.90;;;;;;5018770;28;20223;-85
2023/03/16 08:22:45;;;;;;;2.70;2.47;;;4.70;99.90;;;;;;5018720;28;20206;-85
2023/03/16 08:25:16;;;;;;;2.83;2.63;;;4.80;99.90;;;;;;5019066;28;20214;-85
2023/03/16 08:27:45;;;;;;;3.10;2.90;;;5.00;99.90;;;;;;5018283;28;20207;-85
2023/03/16 08:30:15;;;;;;;4.55;2.40;;;5.10;99.90;;;;;;5019109;28;20289;-85
2023/03/16 08:32:43;;;;;;;2.03;1.92;;;5.30;99.90;;;;;;5018775;28;20284;-81
2023/03/16 08:35:14;;;;;;;2.85;2.65;;;5.40;99.90;;;;;;5018856;28;20261;-81
2023/03/16 08:37:43;;;;;;;4.05;2.85;;;5.60;99.90;;;;;;5018155;28;20308;-81
2023/03/16 08:40:14;;;;;;;3.45;2.47;;;5.80;99.90;;;;;;5017213;28;20250;-81
2023/03/16 08:42:45;;;;;;;2.63;2.08;;;5.80;99.90;;;;;;5015417;28;20263;-81
2023/03/16 08:45:13;;;;;;;2.67;2.35;;;5.80;99.90;;;;;;5015853;28;20207;-81
2023/03/16 08:47:42;;;;;;;2.58;2.38;;;6.00;99.90;;;;;;5014616;28;20276;-79
2023/03/16 08:50:12;;;;;;;2.30;2.10;;;6.30;99.90;;;;;;5014283;28;20253;-80
2023/03/16 08:52:41;;;;;;;2.58;2.30;;;6.60;99.90;;;;;;5015978;28;20301;-88
2023/03/16 08:55:15;;;;;;;3.95;2.38;;;6.80;99.90;;;;;;5039008;28;20210;-88
2023/03/16 08:57:45;;;;;;;2.55;2.08;;;7.10;99.90;;;;;;5054492;28;20296;-81
2023/03/16 09:00:14;;;;;;;2.85;2.13;;;7.30;99.90;;;;;;5043848;28;20226;-81
2023/03/16 09:02:43;;;;;;;3.38;1.92;;;7.40;99.90;;;;;;5049162;28;20206;-81
2023/03/16 09:05:13;;;;;;;2.10;1.50;;;7.70;99.90;;;;;;5038909;28;20302;-82
2023/03/16 09:07:42;;;;;;;1.40;1.30;;;8.00;99.70;;;;;;5039292;28;20198;-80
2023/03/16 09:10:14;;;;;;;2.13;1.48;;;8.40;97.80;;;;;;5041838;28;20228;-80
2023/03/16 09:12:45;;;;;;;2.05;1.80;;;8.80;95.10;;;;;;5049742;28;20223;-80
2023/03/16 09:15:13;;;;;;;6.60;2.05;;;9.10;94.30;;;;;;5034483;28;20206;-81
2023/03/16 09:17:43;;;;;;;1.85;1.58;;;9.50;93.00;;;;;;5033513;28;20232;-80
2023/03/16 09:20:17;;;;;;;3.25;2.17;;;9.80;91.30;;;;;;5034301;28;20256;-80
2023/03/16 09:22:54;;;;;;;4.15;1.92;;;10.20;91.00;;;;;;5038887;28;20198;-85
2023/03/16 09:25:24;;;;;;;4.13;2.40;;;10.50;90.40;;;;;;5035149;28;20256;-85
2023/03/16 09:27:55;;;;;;;6.40;1.58;;;11.00;90.20;;;;;;5033827;28;20211;-85
2023/03/16 09:30:23;;;;;;;1.30;1.20;;;11.50;82.30;;;;;;5034423;28;20231;-86
2023/03/16 09:32:52;;;;;;;1.58;1.30;;;11.80;82.10;;;;;;5034078;28;20218;-87
2023/03/16 09:35:21;;;;;;;15.20;2.80;;;12.10;78.70;;;;;;5034293;28;20238;-87
2023/03/16 09:37:49;;;;;;;1.67;1.55;;;12.30;79.60;;;;;;5036646;28;20107;-86
2023/03/16 09:40:38;;;;;;;1.60;1.50;;;12.50;78.00;;;;;;5051666;28;20236;-87
2023/03/16 09:43:32;;;;;;;1.88;1.50;;;12.90;77.00;;;;;;5053885;28;20206;-86
2023/03/16 09:46:09;;;;;;;2.08;1.75;;;12.90;73.40;;;;;;5037380;28;20226;-86
2023/03/16 09:48:39;;;;;;;1.80;1.67;;;13.10;74.00;;;;;;5033055;28;20198;-87
2023/03/16 09:51:17;;;;;;;3.45;1.83;;;13.50;73.50;;;;;;5033681;28;20226;-84
2023/03/16 09:53:47;;;;;;;2.37;1.80;;;13.90;72.20;;;;;;5033667;28;20226;-85
2023/03/16 09:56:22;;;;;;;2.25;1.90;;;14.10;70.40;;;;;;5033666;28;20261;-85
2023/03/16 09:58:51;;;;;;;2.40;1.90;;;14.30;67.00;;;;;;5034010;28;20272;-84
2023/03/16 10:01:34;;;;;;;1.65;1.55;;;13.90;67.80;;;;;;5033028;28;20137;-84
2023/03/16 10:04:15;;;;;;;1.70;1.60;;;13.40;66.20;;;;;;5033459;28;20215;-84
2023/03/16 10:06:47;;;;;;;;;;;12.70;66.70;;;;;;5033322;28;20357;-84
2023/03/16 10:09:25;;;;;;;2.42;1.83;;;12.50;67.40;;;;;;5037290;28;19945;-84
2023/03/16 10:11:54;;;;;;;;;;;12.70;66.90;;;;;;5036560;28;20116;-84
2023/03/16 10:14:27;;;;;;;;;;;12.60;70.80;;;;;;5053786;28;20042;-83
2023/03/16 10:16:58;;;;;;;;;;;12.80;69.50;;;;;;5053100;28;19946;-86
2023/03/16 10:19:36;;;;;;;3.35;1.80;;;13.10;68.90;;;;;;5052979;28;20304;-84
2023/03/16 10:22:17;;;;;;;4.90;1.80;;;12.50;64.50;;;;;;5053757;28;20296;-86
2023/03/16 10:24:55;;;;;;;2.20;1.48;;;12.10;65.40;;;;;;5052489;28;20198;-84
2023/03/16 10:27:28;;;;;;;1.45;1.35;;;11.90;65.70;;;;;;5038461;28;20274;-84
2023/03/16 10:30:01;;;;;;;1.87;1.20;;;12.00;62.30;;;;;;5052940;28;20090;-84
2023/03/16 10:32:33;;;;;;;;;;;12.20;62.50;;;;;;5053518;28;20162;-85
2023/03/16 10:35:05;;;;;;;1.60;1.20;;;12.60;63.70;;;;;;5013106;28;20197;-86
2023/03/16 10:37:35;;;;;;;8.02;2.00;;;12.90;64.60;;;;;;5012962;28;20047;-86
2023/03/16 10:40:11;;;;;;;4.63;2.05;;;12.80;63.60;;;;;;5013129;28;20084;-86
2023/03/16 10:42:40;;;;;;;1.73;1.63;;;12.90;64.40;;;;;;5020839;28;20140;-86
2023/03/16 10:45:25;;;;;;;2.67;1.88;;;12.70;64.20;;;;;;5033070;28;20229;-86
2023/03/16 10:48:05;;;;;;;1.90;1.63;;;12.60;64.40;;;;;;5031570;28;20235;-86
2023/03/16 10:50:34;;;;;;;3.50;1.80;;;12.50;61.70;;;;;;5032505;28;20215;-86
2023/03/16 10:53:04;;;;;;;1.52;1.42;;;12.10;62.50;;;;;;5032164;28;20302;-86
2023/03/16 10:55:42;;;;;;;1.88;1.77;;;12.20;64.30;;;;;;5044567;28;20298;-86
2023/03/16 10:58:12;;;;;;;1.80;1.70;;;12.30;64.20;;;;;;5013817;28;20207;-86
2023/03/16 11:00:44;;;;;;;;;;;12.80;63.30;;;;;;5027587;28;19921;-87
2023/03/16 11:03:21;;;;;;;;;;;13.10;60.60;;;;;;5047778;28;20055;-84
2023/03/16 11:05:58;;;;;;;2.22;2.03;;;12.90;62.60;;;;;;5027161;28;20204;-85
2023/03/16 11:08:28;;;;;;;2.55;1.98;;;12.90;61.70;;;;;;5031640;28;20219;-85
2023/03/16 11:10:57;;;;;;;;;;;12.90;62.50;;;;;;5032985;28;20143;-85
2023/03/16 11:13:32;;;;;;;;;;;13.20;61.60;;;;;;5033212;28;19921;-86
2023/03/16 11:16:04;;;;;;;;;;;13.50;61.00;;;;;;5032847;28;19968;-86
2023/03/16 11:18:37;;;;;;;2.13;1.98;;;14.40;59.60;;;;;;5031508;28;19964;-85
2023/03/16 11:21:12;;;;;;;2.15;2.00;;;14.30;59.60;;;;;;5032094;28;20041;-86
2023/03/16 11:23:43;;;;;;;;;;;14.20;59.60;;;;;;5032800;28;20064;-86
2023/03/16 11:26:16;;;;;;;;;;;14.10;61.80;;;;;;5032438;28;19983;-86
2023/03/16 11:28:47;;;;;;;;;;;14.20;61.60;;;;;;5032015;28;19929;-86
2023/03/16 11:31:20;;;;;;;;;;;14.20;59.60;;;;;;5031792;28;20020;-86
2023/03/16 11:33:49;;;;;;;;;;;14.50;59.30;;;;;;5036236;28;19925;-87
2023/03/16 11:36:38;;;;;;;;;;;15.10;60.00;;;;;;5024551;28;19982;-86
2023/03/16 11:39:11;;;;;;;;;;;15.40;60.20;;;;;;5020636;28;19986;-87
2023/03/16 11:41:44;;;;;;;;;;;15.50;57.40;;;;;;5032793;28;19952;-86
2023/03/16 11:44:16;;;;;;;;;;;15.50;57.70;;;;;;5032787;28;20008;-87
2023/03/16 11:46:51;;;;;;;;;;;16.00;58.00;;;;;;5032881;28;19942;-82
2023/03/16 11:49:31;;;;;;;;;;;16.20;55.00;;;;;;5032241;28;19947;-86
2023/03/16 11:52:04;;;;;;;;;;;15.90;55.60;;;;;;5032551;28;19945;-86
2023/03/16 11:54:40;;;;;;;;;;;15.90;56.30;;;;;;5032725;28;19945;-87
2023/03/16 11:57:14;;;;;;;;;;;16.10;55.60;;;;;;5027690;28;19932;-84
2023/03/16 11:59:57;;;;;;;;;;;16.30;54.10;;;;;;5032364;28;19967;-86
2023/03/16 12:02:39;;;;;;;;;;;16.20;53.90;;;;;;5032053;28;19965;-85
2023/03/16 12:05:28;;;;;;;;;;;16.40;55.30;;;;;;5032381;28;19945;-86
2023/03/16 12:08:03;;;;;;;;;;;16.30;55.00;;;;;;5050297;28;20049;-86
2023/03/16 12:10:40;;;;;;;6.05;2.45;;;16.40;53.90;;;;;;5051355;28;20209;-85
2023/03/16 12:13:19;;;;;;;;;;;15.80;53.00;;;;;;5036805;28;20147;-85
2023/03/16 12:15:48;;;;;;;;;;;15.70;55.30;;;;;;5031546;28;19920;-84
2023/03/16 12:18:22;;;;;;;;;;;15.60;55.50;;;;;;5035439;28;19945;-88
2023/03/16 12:20:54;;;;;;;;;;;15.60;55.00;;;;;;5035448;28;19962;-88
2023/03/16 12:23:27;;;;;;;;;;;15.70;54.80;;;;;;5034912;28;19937;-88
2023/03/16 12:25:58;;;;;;;;;;;15.70;54.60;;;;;;5034411;28;19940;-89
2023/03/16 12:28:27;;;;;;;;;;;16.00;52.20;;;;;;5029019;28;19937;-80
2023/03/16 12:31:04;;;;;;;;;;;16.10;51.00;;;;;;5036494;28;19969;-79
2023/03/16 12:33:53;;;;;;;;;;;15.90;53.50;;;;;;5040195;28;19941;-79
2023/03/16 12:36:36;;;;;;;;;;;15.30;52.20;;;;;;5035414;28;20035;-81
2023/03/16 12:39:05;;;;;;;;;;;15.40;54.30;;;;;;5035132;28;19982;-79
2023/03/16 12:41:37;;;;;;;;;;;15.70;52.90;;;;;;5035153;28;19963;-89
2023/03/16 12:44:09;;;;;;;;;;;15.80;49.90;;;;;;5035505;28;20035;-89
2023/03/16 12:46:44;;;;;;;;;;;16.00;50.70;;;;;;5021772;28;19977;-87
2023/03/16 12:49:17;;;;;;;;;;;16.40;49.70;;;;;;5035109;28;19954;-89
2023/03/16 12:51:47;;;;;;;;;;;16.80;49.10;;;;;;5034919;28;20041;-87
2023/03/16 12:54:19;;;;;;;;;;;16.40;49.70;;;;;;5034443;28;19932;-86
2023/03/16 12:56:49;;;;;;;;;;;16.30;49.60;;;;;;5029514;28;19938;-86
2023/03/16 12:59:18;;;;;;;;;;;16.30;51.50;;;;;;5036926;28;19972;-86
2023/03/16 13:01:49;;;;;;;;;;;16.60;49.70;;;;;;5039788;28;19960;-86
2023/03/16 13:04:20;;;;;;;;;;;16.70;48.60;;;;;;5054724;28;19947;-87
2023/03/16 13:06:50;;;;;;;;;;;16.90;49.90;;;;;;5054447;28;20023;-86
2023/03/16 13:09:20;;;;;;;;;;;17.10;49.20;;;;;;5054263;28;19969;-86
2023/03/16 13:11:50;;;;;;;;;;;17.10;49.10;;;;;;5049292;28;19941;-87
2023/03/16 13:14:32;;;;;;;;;;;16.90;47.20;;;;;;5043438;28;19942;-85
2023/03/16 13:17:05;;;;;;;;;;;16.80;47.00;;;;;;5020779;28;19946;-85
2023/03/16 13:19:38;;;;;;;;;;;16.80;47.40;;;;;;5015615;28;19956;-85
2023/03/16 13:22:26;;;;;;;;;;;16.80;46.80;;;;;;5033999;28;19964;-81
2023/03/16 13:24:56;;;;;;;;;;;16.50;46.80;;;;;;5034637;28;19940;-85
2023/03/16 13:27:27;;;;;;;;;;;16.80;48.40;;;;;;5033446;28;19980;-85
2023/03/16 13:29:56;;;;;;;;;;;16.90;47.60;;;;;;5034833;28;20054;-84